Time;durP1;ratioP1;P1;durP2;ratioP2;P2;SDS_P1;SDS_P2;PMS_P1;PMS_P2;Temp;Humidity;BMP_temperature;BMP_pressure;BME280_temperature;BME280_humidity;BME280_pressure;Samples;Min_cycle;Max_cycle;Signal;HPM_P1;HPM_P2
2022/08/15 00:00:41;;;;;;;3.78;2.65;;;;;;;18.40;82.29;98842.78;5114764;27;20026;-83
2022/08/15 00:03:24;;;;;;;2.55;2.35;;;;;;;18.64;81.10;98850.25;5119710;27;20047;-83
2022/08/15 00:05:50;;;;;;;1.88;1.75;;;;;;;18.40;82.72;98861.47;5130058;27;20033;-84
2022/08/15 00:08:17;;;;;;;0.95;0.95;;;;;;;18.42;81.71;98832.88;5129961;27;20080;-84
2022/08/15 00:10:45;;;;;;;2.63;2.45;;;;;;;18.26;82.93;98845.44;5129989;27;20038;-85
2022/08/15 00:13:19;;;;;;;2.33;2.13;;;;;;;18.55;81.27;98857.03;5128119;27;20045;-84
2022/08/15 00:15:47;;;;;;;1.85;1.75;;;;;;;18.71;80.77;98862.28;5129888;27;20037;-84
2022/08/15 00:18:13;;;;;;;0.45;0.45;;;;;;;18.65;80.83;98849.31;5130034;27;20110;-85
2022/08/15 00:20:40;;;;;;;2.80;2.60;;;;;;;18.52;81.73;98854.53;5129168;27;20031;-85
2022/08/15 00:23:08;;;;;;;5.43;2.70;;;;;;;18.54;80.20;98825.06;5115174;27;20035;-85
2022/08/15 00:25:37;;;;;;;3.97;3.60;;;;;;;18.76;79.54;98846.81;5109289;28;20041;-85
2022/08/15 00:28:05;;;;;;;2.47;2.28;;;;;;;18.59;80.12;98845.19;5108731;28;20032;-85
2022/08/15 00:30:32;;;;;;;2.55;2.35;;;;;;;18.58;80.12;98864.84;5108981;28;20115;-85
2022/08/15 00:32:57;;;;;;;3.67;2.97;;;;;;;18.81;79.46;98869.72;5121452;27;20031;-84
2022/08/15 00:35:36;;;;;;;2.90;2.70;;;;;;;18.69;79.36;98831.25;5111610;27;20421;-84
2022/08/15 00:38:23;;;;;;;2.13;1.85;;;;;;;18.88;78.91;98855.91;5124000;27;20452;-85
2022/08/15 00:43:41;;;;;;;2.75;2.55;;;;;;;18.95;79.13;98851.91;5107153;27;20553;-84
2022/08/15 00:46:09;;;;;;;3.78;2.40;;;;;;;18.76;79.55;98854.81;5129551;27;20055;-85
2022/08/15 00:48:44;;;;;;;4.72;4.22;;;;;;;18.75;79.44;98845.13;5129027;27;20125;-85
2022/08/15 00:51:24;;;;;;;7.18;2.78;;;;;;;18.76;80.03;98860.16;5127194;27;20089;-85
2022/08/15 00:53:57;;;;;;;2.42;2.25;;;;;;;18.69;79.98;98844.63;5112411;27;20039;-84
2022/08/15 00:56:29;;;;;;;2.13;2.03;;;;;;;18.83;79.05;98859.78;5127434;27;20571;-85
2022/08/15 00:58:55;;;;;;;2.60;2.40;;;;;;;18.78;79.58;98866.28;5123637;27;20059;-84
2022/08/15 01:01:22;;;;;;;2.95;2.67;;;;;;;18.70;80.05;98852.53;5108233;28;20118;-85
2022/08/15 01:03:48;;;;;;;0.98;0.98;;;;;;;18.66;80.14;98861.72;5108551;28;20043;-84
2022/08/15 01:06:16;;;;;;;0.77;0.77;;;;;;;18.54;79.90;98844.63;5089879;28;20421;-85
2022/08/15 01:08:44;;;;;;;3.45;3.00;;;;;;;18.53;79.97;98850.06;5109629;27;20450;-84
2022/08/15 01:11:26;;;;;;;4.43;3.53;;;;;;;18.60;79.93;98872.78;5128862;27;20135;-83
2022/08/15 01:13:54;;;;;;;1.45;1.35;;;;;;;18.78;79.13;98876.97;5107305;27;20031;-84
2022/08/15 01:16:23;;;;;;;3.63;2.75;;;;;;;18.74;78.47;98885.28;5108277;28;20083;-83
2022/08/15 01:18:49;;;;;;;2.40;2.22;;;;;;;18.47;79.48;98885.13;5110055;27;20084;-84
2022/08/15 01:21:31;;;;;;;2.67;2.42;;;;;;;18.50;79.43;98884.97;5128612;27;20113;-84
2022/08/15 01:24:35;;;;;;;1.52;1.42;;;;;;;18.60;79.56;98908.34;5128425;27;20033;-84
2022/08/15 01:27:01;;;;;;;4.65;2.17;;;;;;;18.58;78.79;98894.22;5045356;28;20182;-84
2022/08/15 01:29:27;;;;;;;3.47;3.17;;;;;;;18.65;78.89;98897.38;5036706;28;20041;-85
2022/08/15 01:31:52;;;;;;;4.15;3.15;;;;;;;18.54;78.55;98879.34;5062701;27;20051;-85
2022/08/15 01:34:18;;;;;;;2.35;2.20;;;;;;;18.48;79.26;98865.50;5128811;27;20404;-85
2022/08/15 01:36:44;;;;;;;2.90;2.70;;;;;;;18.70;78.60;98892.59;5127988;27;20111;-84
2022/08/15 01:39:23;;;;;;;2.15;1.45;;;;;;;18.60;78.64;98880.78;5123211;27;20027;-85
2022/08/15 01:42:13;;;;;;;8.05;4.40;;;;;;;18.64;78.51;98892.13;5123487;27;20057;-84
2022/08/15 01:44:51;;;;;;;2.35;2.22;;;;;;;18.52;77.90;98869.69;5089581;28;20122;-84
2022/08/15 01:47:26;;;;;;;3.60;3.30;;;;;;;18.63;78.55;98907.31;5066906;28;20090;-85
2022/08/15 01:49:51;;;;;;;2.33;2.13;;;;;;;18.49;79.04;98917.94;5079571;28;20055;-84
2022/08/15 01:52:19;;;;;;;2.72;2.05;;;;;;;18.34;79.82;98923.25;5078357;28;20142;-84
2022/08/15 01:54:46;;;;;;;3.15;2.70;;;;;;;18.34;79.57;98893.88;5067241;28;20036;-84
2022/08/15 01:57:11;;;;;;;5.65;2.50;;;;;;;18.36;79.69;98902.66;5067242;28;20119;-83
2022/08/15 01:59:38;;;;;;;6.60;3.50;;;;;;;18.34;79.16;98888.53;5077133;28;20529;-83
2022/08/15 02:02:10;;;;;;;1.92;1.83;;;;;;;18.34;78.51;98891.22;5087075;28;20020;-84
2022/08/15 02:04:39;;;;;;;6.25;2.65;;;;;;;18.32;78.44;98884.25;5086987;28;20028;-84
2022/08/15 02:07:21;;;;;;;2.50;1.75;;;;;;;18.22;79.05;98886.59;5083213;28;20565;-84
2022/08/15 02:09:49;;;;;;;1.15;1.08;;;;;;;18.33;79.08;98897.50;5093719;28;20417;-84
2022/08/15 02:12:18;;;;;;;6.05;4.45;;;;;;;18.32;79.41;98903.81;5068870;28;20115;-84
2022/08/15 02:14:43;;;;;;;4.10;3.17;;;;;;;18.38;79.33;98899.88;5098590;28;20853;-84
2022/08/15 02:17:10;;;;;;;4.20;2.50;;;;;;;18.35;78.95;98898.28;5074207;28;20024;-85
2022/08/15 02:19:41;;;;;;;2.67;2.22;;;;;;;18.37;78.85;98899.03;5091412;28;20098;-85
2022/08/15 02:22:10;;;;;;;3.42;2.65;;;;;;;18.30;79.33;98904.84;5066678;28;20033;-85
2022/08/15 02:24:38;;;;;;;2.58;2.38;;;;;;;18.28;79.38;98906.75;5066587;28;20093;-84
2022/08/15 02:27:05;;;;;;;2.72;2.53;;;;;;;18.20;79.36;98893.84;5072367;28;20113;-84
2022/08/15 02:29:31;;;;;;;3.10;2.80;;;;;;;18.04;78.87;98864.53;5085267;28;20063;-84
2022/08/15 02:32:02;;;;;;;0.77;0.77;;;;;;;18.18;79.33;98882.38;5086762;28;20114;-85
2022/08/15 02:34:27;;;;;;;3.78;2.10;;;;;;;18.10;79.76;98882.84;5085712;28;20047;-83
2022/08/15 02:36:53;;;;;;;2.03;1.85;;;;;;;18.16;79.77;98889.63;5081509;28;20036;-84
2022/08/15 02:39:18;;;;;;;3.67;2.45;;;;;;;17.97;79.80;98865.84;5066523;28;20047;-84
2022/08/15 02:41:49;;;;;;;4.40;3.22;;;;;;;18.14;79.61;98875.53;5080658;28;20564;-84
2022/08/15 02:44:16;;;;;;;5.80;3.38;;;;;;;18.28;78.90;98901.41;5086454;28;20141;-84
2022/08/15 02:46:43;;;;;;;2.50;1.98;;;;;;;18.13;79.32;98889.81;5118492;28;20441;-84
2022/08/15 02:49:11;;;;;;;1.30;1.25;;;;;;;18.13;79.23;98911.16;5106209;28;20507;-83
2022/08/15 02:51:37;;;;;;;4.78;3.88;;;;;;;18.13;79.05;98908.50;5114125;28;20044;-83
2022/08/15 02:54:04;;;;;;;1.83;1.73;;;;;;;17.83;80.60;98915.50;5107136;28;20523;-85
2022/08/15 02:56:30;;;;;;;3.58;3.15;;;;;;;17.62;81.33;98888.22;5107563;28;20055;-85
2022/08/15 02:58:55;;;;;;;3.88;2.90;;;;;;;17.88;81.33;98913.44;5114279;28;20488;-85
2022/08/15 03:01:22;;;;;;;2.70;2.45;;;;;;;17.90;80.76;98889.34;5111039;28;20032;-84
2022/08/15 03:03:51;;;;;;;3.63;3.38;;;;;;;17.88;81.42;98904.56;5114064;28;20493;-84
2022/08/15 03:06:24;;;;;;;2.83;2.63;;;;;;;17.76;81.60;98891.94;5106850;28;20028;-84
2022/08/15 03:08:51;;;;;;;1.98;1.88;;;;;;;17.55;82.37;98870.88;5107342;28;20390;-84
2022/08/15 03:11:17;;;;;;;4.25;3.90;;;;;;;17.57;82.90;98897.44;5107210;28;20516;-85
2022/08/15 03:13:43;;;;;;;4.10;2.20;;;;;;;17.65;82.40;98873.88;5106860;28;20028;-85
2022/08/15 03:16:11;;;;;;;2.88;2.67;;;;;;;17.65;81.81;98889.88;5106550;28;20488;-86
2022/08/15 03:18:38;;;;;;;3.38;2.13;;;;;;;17.85;81.39;98886.06;5126121;28;20034;-85
2022/08/15 03:21:07;;;;;;;3.45;3.05;;;;;;;17.77;80.69;98866.97;5109020;28;20063;-84
2022/08/15 03:23:33;;;;;;;3.28;2.75;;;;;;;17.81;80.71;98879.16;5107673;28;20066;-84
2022/08/15 03:26:01;;;;;;;2.72;2.47;;;;;;;17.81;80.44;98877.38;5109193;28;20072;-84
2022/08/15 03:28:31;;;;;;;1.80;1.65;;;;;;;17.75;80.52;98868.84;5083389;28;20410;-84
2022/08/15 03:30:59;;;;;;;1.15;1.10;;;;;;;18.04;79.57;98884.09;5111923;27;20036;-82
2022/08/15 03:33:25;;;;;;;1.92;1.80;;;;;;;17.92;78.87;98878.59;5109079;27;20057;-85
2022/08/15 03:35:51;;;;;;;3.92;3.42;;;;;;;17.78;79.21;98880.22;5125084;27;20039;-85
2022/08/15 03:38:17;;;;;;;3.03;2.42;;;;;;;17.96;79.96;98907.66;5114220;27;20118;-85
2022/08/15 03:40:48;;;;;;;3.53;1.85;;;;;;;17.83;80.18;98883.47;5109075;27;20527;-82
2022/08/15 03:43:26;;;;;;;3.35;3.00;;;;;;;17.97;80.75;98916.56;5109818;28;20038;-83
2022/08/15 03:45:59;;;;;;;4.30;4.00;;;;;;;17.88;81.36;98909.88;5107513;28;20060;-82
2022/08/15 03:48:29;;;;;;;2.47;2.08;;;;;;;17.82;81.77;98900.44;5099739;28;20045;-81
2022/08/15 03:50:56;;;;;;;6.13;3.25;;;;;;;17.82;81.19;98891.56;5116250;27;20500;-83
2022/08/15 03:53:22;;;;;;;1.83;1.73;;;;;;;17.99;80.56;98895.97;5112157;27;20039;-81
2022/08/15 03:55:48;;;;;;;4.82;3.50;;;;;;;17.94;81.24;98904.22;5092157;28;20056;-82
2022/08/15 03:58:14;;;;;;;3.35;3.05;;;;;;;17.98;80.58;98892.44;5126340;27;20066;-82
2022/08/15 04:00:46;;;;;;;4.65;3.33;;;;;;;18.10;80.07;98912.19;5122722;27;20034;-80
2022/08/15 04:03:15;;;;;;;3.63;3.22;;;;;;;17.94;80.21;98917.56;5102858;28;20115;-82
2022/08/15 04:05:44;;;;;;;2.45;1.98;;;;;;;18.03;79.91;98913.53;5093698;27;20043;-82
2022/08/15 04:08:12;;;;;;;4.20;3.45;;;;;;;18.10;79.82;98922.88;5123922;27;20039;-82
2022/08/15 04:10:38;;;;;;;3.13;2.63;;;;;;;18.23;79.32;98923.88;5125529;27;20031;-82
2022/08/15 04:13:06;;;;;;;3.75;3.45;;;;;;;18.19;79.58;98900.97;5109471;28;20027;-86
2022/08/15 04:15:33;;;;;;;2.65;2.45;;;;;;;18.39;79.99;98926.50;5108908;28;20483;-83
2022/08/15 04:18:00;;;;;;;7.00;4.95;;;;;;;18.34;79.85;98898.38;5125286;27;20031;-83
2022/08/15 04:20:26;;;;;;;3.85;3.53;;;;;;;18.57;79.89;98924.56;5123548;27;20501;-80
2022/08/15 04:22:52;;;;;;;3.95;3.65;;;;;;;18.47;80.12;98895.81;5109107;28;20543;-83
2022/08/15 04:25:22;;;;;;;4.57;4.18;;;;;;;18.80;79.75;98922.31;5109291;28;20146;-83
2022/08/15 04:27:49;;;;;;;4.18;3.78;;;;;;;18.82;79.67;98909.69;5109215;28;20114;-83
2022/08/15 04:30:16;;;;;;;7.00;5.95;;;;;;;19.04;80.04;98927.97;5112049;27;20032;-83
2022/08/15 04:32:42;;;;;;;7.07;6.07;;;;;;;19.01;79.96;98912.13;5129499;27;20027;-82
2022/08/15 04:35:10;;;;;;;4.75;3.97;;;;;;;19.12;79.35;98896.28;5129226;27;20031;-82
2022/08/15 04:37:37;;;;;;;3.85;3.17;;;;;;;19.41;79.39;98936.34;5125947;27;20134;-80
2022/08/15 04:40:12;;;;;;;4.60;4.20;;;;;;;19.30;79.68;98906.75;5105163;27;20505;-83
2022/08/15 04:42:49;;;;;;;5.55;5.10;;;;;;;19.55;79.15;98921.25;5099021;28;20111;-81
2022/08/15 04:45:15;;;;;;;5.90;3.50;;;;;;;19.46;79.25;98920.00;5105402;28;20062;-81
2022/08/15 04:47:41;;;;;;;5.20;4.03;;;;;;;19.36;80.69;98910.88;5108571;28;20115;-81
2022/08/15 04:50:08;;;;;;;1.92;1.83;;;;;;;19.71;80.44;98927.34;5108724;28;20138;-81
2022/08/15 04:52:33;;;;;;;5.78;5.13;;;;;;;19.73;81.51;98930.75;5111419;27;20415;-80
2022/08/15 04:54:59;;;;;;;6.47;6.00;;;;;;;19.48;82.81;98920.78;5108027;27;20039;-81
2022/08/15 04:57:24;;;;;;;5.45;4.28;;;;;;;19.71;82.82;98930.00;5106913;27;20042;-82
2022/08/15 04:59:50;;;;;;;4.72;3.42;;;;;;;19.83;81.87;98904.28;5113836;27;20031;-81
2022/08/15 05:02:23;;;;;;;4.40;3.75;;;;;;;20.06;81.43;98932.19;5114712;27;20031;-82
2022/08/15 05:04:49;;;;;;;3.90;3.60;;;;;;;20.12;81.19;98921.09;5101117;28;20497;-82
2022/08/15 05:07:14;;;;;;;5.28;3.88;;;;;;;20.03;81.61;98937.75;5099142;28;20129;-80
2022/08/15 05:09:40;;;;;;;4.78;3.45;;;;;;;20.09;81.09;98907.91;5101518;28;20066;-81
2022/08/15 05:12:06;;;;;;;4.05;3.72;;;;;;;20.23;80.24;98908.81;5099812;28;20089;-80
2022/08/15 05:14:31;;;;;;;6.80;4.63;;;;;;;20.57;78.49;98897.53;5106038;28;20027;-80
2022/08/15 05:16:57;;;;;;;3.03;2.83;;;;;;;21.06;76.70;98917.38;5107965;28;20088;-80
2022/08/15 05:19:22;;;;;;;3.30;2.97;;;;;;;21.25;76.29;98919.59;5108208;28;20477;-83
2022/08/15 05:21:48;;;;;;;3.42;3.13;;;;;;;21.30;73.95;98911.22;5108393;27;20044;-80
2022/08/15 05:24:13;;;;;;;4.90;3.80;;;;;;;21.00;75.06;98887.47;5107991;28;20089;-81
2022/08/15 05:26:39;;;;;;;2.50;2.05;;;;;;;20.72;73.83;98909.00;5125565;27;20115;-80
2022/08/15 05:29:06;;;;;;;5.07;3.70;;;;;;;20.52;75.97;98891.59;5127402;27;20034;-81
2022/08/15 05:31:32;;;;;;;7.32;5.38;;;;;;;20.86;74.59;98883.06;5128147;27;20023;-81
2022/08/15 05:33:59;;;;;;;6.15;4.70;;;;;;;20.89;74.43;98886.38;5128128;27;20058;-80
2022/08/15 05:36:26;;;;;;;2.55;2.35;;;;;;;20.90;74.48;98889.94;5125758;27;20473;-82
2022/08/15 05:38:58;;;;;;;5.03;3.88;;;;;;;21.19;72.75;98920.03;5128176;27;20027;-81
2022/08/15 05:41:31;;;;;;;12.27;4.78;;;;;;;21.08;73.50;98930.66;5126352;27;20031;-81
2022/08/15 05:44:06;;;;;;;3.80;3.42;;;;;;;21.13;72.64;98899.00;5128186;27;20054;-81
2022/08/15 05:46:47;;;;;;;4.30;2.92;;;;;;;21.66;72.15;98936.41;5127064;27;20054;-81
2022/08/15 05:49:39;;;;;;;3.80;3.50;;;;;;;21.92;70.62;98938.97;5128323;27;20047;-82
2022/08/15 05:52:23;;;;;;;3.42;3.10;;;;;;;21.94;69.81;98939.75;5127823;27;20038;-81
2022/08/15 05:55:46;;;;;;;6.00;5.13;;;;;;;21.51;72.53;98951.78;5128105;27;20035;-81
2022/08/15 05:58:27;;;;;;;9.38;5.72;;;;;;;21.57;72.28;98921.81;5043954;28;20531;-81
2022/08/15 06:01:14;;;;;;;3.90;3.60;;;;;;;21.64;71.35;98928.47;5044673;28;20431;-81
2022/08/15 06:03:49;;;;;;;5.28;4.28;;;;;;;21.97;72.98;98953.78;5104130;27;20047;-82
2022/08/15 06:06:20;;;;;;;4.00;3.33;;;;;;;22.53;69.98;98965.78;5127739;27;20080;-81
2022/08/15 06:08:51;;;;;;;4.60;4.05;;;;;;;23.04;68.93;98956.50;5126684;27;20375;-81
2022/08/15 06:11:40;;;;;;;4.03;2.83;;;;;;;23.11;68.77;98935.38;5127978;27;20023;-82
2022/08/15 06:14:46;;;;;;;5.63;3.85;;;;;;;23.55;65.33;98952.50;5127895;28;20034;-83
2022/08/15 06:17:17;;;;;;;5.18;3.25;;;;;;;23.61;65.78;98952.00;5044428;28;20040;-82
2022/08/15 06:19:48;;;;;;;2.63;2.42;;;;;;;23.78;66.27;98937.19;5116639;28;20099;-84
2022/08/15 06:22:41;;;;;;;3.95;2.05;;;;;;;23.90;66.49;98952.38;5127866;27;20033;-84
2022/08/15 06:25:32;;;;;;;1.85;1.75;;;;;;;24.17;65.10;98947.50;5127671;27;20035;-82
2022/08/15 06:28:48;;;;;;;4.35;3.20;;;;;;;24.88;63.04;98920.81;5127692;27;20027;-83
2022/08/15 06:31:22;;;;;;;3.30;2.55;;;;;;;25.27;62.90;98945.31;5127500;27;20057;-85
2022/08/15 06:34:16;;;;;;;2.97;2.77;;;;;;;25.00;62.89;98935.09;5126551;28;20054;-81
2022/08/15 06:37:00;;;;;;;1.90;1.73;;;;;;;24.55;60.72;98933.50;5127867;27;20027;-81
2022/08/15 06:39:41;;;;;;;2.55;1.48;;;;;;;24.13;61.84;98904.66;5127952;28;20087;-81
2022/08/15 06:42:37;;;;;;;3.50;3.05;;;;;;;23.99;61.49;98940.00;5127741;28;20096;-81
2022/08/15 06:45:08;;;;;;;2.05;1.30;;;;;;;23.97;62.57;98933.84;5102759;28;20031;-82
2022/08/15 06:47:35;;;;;;;2.95;1.83;;;;;;;24.19;62.03;98956.31;5127096;28;20027;-81
2022/08/15 06:50:11;;;;;;;1.63;1.52;;;;;;;24.10;60.22;98934.56;5127456;28;20035;-82
2022/08/15 06:52:37;;;;;;;1.27;1.23;;;;;;;24.10;61.29;98939.09;5127654;28;20039;-80
2022/08/15 06:55:03;;;;;;;3.75;2.67;;;;;;;24.07;61.70;98934.81;5126998;28;20019;-81
2022/08/15 06:57:41;;;;;;;5.35;2.75;;;;;;;24.19;61.34;98951.81;5129208;27;20052;-83
2022/08/15 07:00:15;;;;;;;1.50;1.40;;;;;;;24.45;60.03;98946.91;5131324;27;20027;-82
2022/08/15 07:02:58;;;;;;;1.70;1.52;;;;;;;24.40;60.77;98964.44;5131572;27;20092;-83
2022/08/15 07:05:36;;;;;;;1.15;1.08;;;;;;;24.83;60.40;98923.91;5131208;27;20038;-84
2022/08/15 07:08:33;;;;;;;3.45;2.15;;;;;;;24.64;59.84;98932.75;5131069;27;20027;-83
2022/08/15 07:11:27;;;;;;;0.70;0.68;;;;;;;24.82;58.55;98957.28;5074821;27;20061;-84
2022/08/15 07:14:06;;;;;;;1.17;0.98;;;;;;;25.02;57.40;98941.19;5131604;27;20027;-82
2022/08/15 07:17:19;;;;;;;1.33;1.23;;;;;;;25.33;57.82;98928.63;5131152;27;20079;-82
2022/08/15 07:19:45;;;;;;;7.47;1.33;;;;;;;25.40;56.04;98937.03;5111525;27;20569;-82
2022/08/15 07:22:11;;;;;;;1.83;1.73;;;;;;;25.80;55.56;98968.56;5130798;27;20023;-82
2022/08/15 07:24:37;;;;;;;4.22;1.92;;;;;;;25.82;54.36;98957.63;5131190;27;20477;-81
2022/08/15 07:27:14;;;;;;;1.55;1.42;;;;;;;25.75;52.79;98960.03;5130699;27;20479;-82
2022/08/15 07:29:42;;;;;;;1.58;0.85;;;;;;;25.59;53.62;98928.13;5130779;27;20109;-85
2022/08/15 07:32:29;;;;;;;0.95;0.90;;;;;;;26.22;53.03;98962.97;5130162;27;20142;-83
2022/08/15 07:35:11;;;;;;;1.55;1.23;;;;;;;26.09;51.93;98955.16;5112957;27;20027;-81
2022/08/15 07:37:50;;;;;;;1.95;1.42;;;;;;;26.24;53.10;98961.00;5109964;28;20028;-82
2022/08/15 07:40:25;;;;;;;1.98;1.77;;;;;;;26.27;52.49;98970.66;5109515;28;20042;-82
2022/08/15 07:42:51;;;;;;;0.57;0.57;;;;;;;26.83;51.32;98949.31;5091916;28;20035;-84
2022/08/15 07:45:20;;;;;;;1.75;1.25;;;;;;;26.76;50.21;98922.84;5110536;28;20134;-82
2022/08/15 07:48:05;;;;;;;1.45;1.35;;;;;;;27.07;53.08;98919.91;5109747;28;20122;-82
2022/08/15 07:50:43;;;;;;;1.20;1.10;;;;;;;27.21;49.57;98967.31;5109608;28;20035;-83
2022/08/15 07:53:16;;;;;;;2.72;1.63;;;;;;;27.18;49.94;98962.19;5109915;28;20039;-81
2022/08/15 07:56:04;;;;;;;2.47;1.70;;;;;;;27.37;47.83;98957.75;5109761;28;20104;-82
2022/08/15 07:58:32;;;;;;;2.97;2.15;;;;;;;27.08;50.07;98947.81;5124442;27;20134;-84
2022/08/15 08:01:35;;;;;;;1.30;1.20;;;;;;;27.11;51.26;98939.41;5091337;28;20028;-83
2022/08/15 08:04:08;;;;;;;1.25;1.17;;;;;;;27.50;47.46;98944.72;5105411;28;20048;-83
2022/08/15 08:06:50;;;;;;;2.70;1.45;;;;;;;27.75;47.49;98955.88;5109638;28;20028;-84
2022/08/15 08:09:29;;;;;;;1.65;1.50;;;;;;;27.58;48.02;98925.88;5108537;28;20042;-82
2022/08/15 08:12:07;;;;;;;1.23;0.93;;;;;;;27.72;47.71;98935.34;5109912;28;20024;-82
2022/08/15 08:14:37;;;;;;;1.23;1.13;;;;;;;27.99;48.38;98929.06;5109428;28;20038;-82
2022/08/15 08:17:12;;;;;;;1.25;0.98;;;;;;;28.16;45.65;98943.66;5109552;28;20023;-82
2022/08/15 08:19:47;;;;;;;1.77;1.60;;;;;;;28.34;47.50;98921.94;5109028;28;20042;-82
2022/08/15 08:22:29;;;;;;;1.55;1.45;;;;;;;27.91;47.50;98911.84;5109290;28;20046;-82
2022/08/15 08:25:06;;;;;;;5.32;2.83;;;;;;;28.19;48.97;98934.34;5109237;28;20031;-82
2022/08/15 08:27:44;;;;;;;1.55;1.33;;;;;;;28.32;46.68;98933.97;5108023;28;20186;-82
2022/08/15 08:30:19;;;;;;;4.32;1.40;;;;;;;28.66;46.18;98920.56;5109297;28;20034;-81
2022/08/15 08:32:48;;;;;;;0.70;0.68;;;;;;;27.79;43.98;98932.88;5109497;28;20581;-81
2022/08/15 08:36:04;;;;;;;2.10;1.90;;;;;;;27.64;46.93;98927.13;5108936;28;20150;-81
2022/08/15 08:38:45;;;;;;;1.85;1.45;;;;;;;27.23;45.13;98899.50;5084438;28;20042;-82
2022/08/15 08:41:28;;;;;;;1.73;1.55;;;;;;;28.34;44.99;98913.81;5085865;28;20032;-81
2022/08/15 08:44:03;;;;;;;1.85;1.15;;;;;;;28.30;43.58;98920.56;5087446;28;20150;-81
2022/08/15 08:46:56;;;;;;;7.15;1.23;;;;;;;28.31;43.19;98921.41;5088067;28;20426;-82
2022/08/15 08:49:36;;;;;;;1.38;1.13;;;;;;;28.45;45.82;98907.28;5088454;28;20031;-83
2022/08/15 08:52:10;;;;;;;1.05;1.05;;;;;;;29.37;44.93;98904.22;5088288;28;20103;-81
2022/08/15 08:55:06;;;;;;;2.47;2.28;;;;;;;28.63;43.18;98876.63;5088464;28;20516;-84
2022/08/15 08:57:40;;;;;;;1.42;1.33;;;;;;;28.61;44.78;98892.19;5087904;28;20035;-83
2022/08/15 09:00:12;;;;;;;2.03;1.63;;;;;;;28.49;43.14;98902.41;5097268;28;20035;-82
2022/08/15 09:03:02;;;;;;;4.22;1.85;;;;;;;28.48;44.69;98906.97;5108391;28;20043;-83
2022/08/15 09:05:36;;;;;;;0.93;0.93;;;;;;;28.23;45.10;98889.66;5107161;28;20038;-81
2022/08/15 09:08:15;;;;;;;2.78;2.35;;;;;;;27.64;45.90;98889.19;5108208;28;20191;-81
2022/08/15 09:10:44;;;;;;;2.80;1.30;;;;;;;28.06;46.10;98880.50;5108254;28;20031;-82
2022/08/15 09:16:02;;;;;;;4.00;2.05;;;;;;;28.06;45.47;98861.53;5108179;28;20043;-83
2022/08/15 09:18:31;;;;;;;2.15;1.95;;;;;;;28.14;46.34;98893.28;5108089;28;20088;-82
2022/08/15 09:20:58;;;;;;;3.95;1.83;;;;;;;28.06;44.25;98899.50;5107922;28;20045;-82
2022/08/15 09:23:26;;;;;;;1.30;1.20;;;;;;;28.13;46.27;98902.44;5108128;28;20050;-82
2022/08/15 09:26:18;;;;;;;3.33;2.15;;;;;;;28.43;46.23;98922.03;5100008;28;20089;-83
2022/08/15 09:29:01;;;;;;;3.05;2.13;;;;;;;29.03;44.70;98911.31;5099996;28;20036;-83
2022/08/15 09:31:33;;;;;;;1.92;1.40;;;;;;;29.35;44.45;98895.34;5107557;28;20496;-83
2022/08/15 09:34:00;;;;;;;0.70;0.70;;;;;;;29.60;42.49;98912.63;5100702;28;20039;-82
2022/08/15 09:37:03;;;;;;;1.35;1.13;;;;;;;29.70;42.97;98902.47;5094972;28;20036;-82
2022/08/15 09:39:46;;;;;;;5.50;2.53;;;;;;;29.23;43.58;98913.81;5087650;28;20412;-83
2022/08/15 09:42:31;;;;;;;6.30;1.90;;;;;;;29.54;45.62;98899.69;5104493;28;20078;-81
2022/08/15 09:45:06;;;;;;;;;;;;;;;29.40;44.47;98903.91;5106153;28;20416;-83
2022/08/15 09:48:19;;;;;;;2.42;1.98;;;;;;;29.60;43.84;98912.63;5093961;28;19916;-83
2022/08/15 09:51:12;;;;;;;1.00;0.90;;;;;;;29.50;40.40;98901.03;5074576;28;20732;-82
2022/08/15 09:54:05;;;;;;;4.03;2.05;;;;;;;29.25;41.78;98904.47;5086957;28;20028;-83
2022/08/15 09:56:36;;;;;;;11.95;2.28;;;;;;;29.08;44.30;98872.81;5084580;28;20050;-83
2022/08/15 09:59:25;;;;;;;5.38;2.00;;;;;;;29.54;42.54;98895.09;5086955;28;20028;-82
2022/08/15 10:01:59;;;;;;;3.60;1.88;;;;;;;29.59;42.80;98886.47;5087048;28;20126;-83
2022/08/15 10:05:00;;;;;;;1.60;1.25;;;;;;;29.10;44.43;98874.38;5087015;28;20118;-83
2022/08/15 10:07:48;;;;;;;3.38;2.17;;;;;;;29.27;41.48;98890.75;5086166;28;20082;-82
2022/08/15 10:10:22;;;;;;;3.30;1.75;;;;;;;29.73;42.93;98901.28;5085871;28;20028;-82
2022/08/15 10:13:13;;;;;;;2.60;2.03;;;;;;;29.76;42.97;98900.94;5086416;28;20047;-83
2022/08/15 10:15:47;;;;;;;2.05;1.50;;;;;;;29.89;39.70;98874.19;5086526;28;20046;-83
2022/08/15 10:18:21;;;;;;;1.73;1.60;;;;;;;29.73;40.78;98895.84;5086520;28;20058;-83
2022/08/15 10:20:52;;;;;;;3.15;1.25;;;;;;;29.07;42.16;98873.81;5086251;28;20361;-82
2022/08/15 10:23:24;;;;;;;3.58;2.42;;;;;;;29.46;45.04;98874.19;5086868;28;20506;-82
2022/08/15 10:26:13;;;;;;;1.85;1.65;;;;;;;29.93;40.27;98874.69;5086861;28;20489;-83
2022/08/15 10:28:40;;;;;;;4.00;2.63;;;;;;;29.52;39.55;98844.66;5086837;28;20051;-81
2022/08/15 10:31:08;;;;;;;1.65;1.15;;;;;;;29.49;39.94;98888.47;5086498;28;20482;-82
2022/08/15 10:33:34;;;;;;;2.33;1.63;;;;;;;29.66;42.54;98884.81;5090750;28;20038;-82
2022/08/15 10:36:14;;;;;;;2.20;2.00;;;;;;;29.86;40.75;98890.81;5091155;28;20039;-82
2022/08/15 10:38:44;;;;;;;1.27;1.02;;;;;;;29.55;42.63;98874.22;5091008;28;20772;-81
2022/08/15 10:41:15;;;;;;;1.98;1.27;;;;;;;29.78;41.08;98885.31;5091093;28;20024;-82
2022/08/15 10:44:12;;;;;;;2.65;1.98;;;;;;;29.89;40.69;98881.47;5090515;28;20486;-82
2022/08/15 10:46:50;;;;;;;2.03;1.48;;;;;;;29.79;40.62;98876.16;5090377;28;20043;-82
2022/08/15 10:49:40;;;;;;;3.03;2.17;;;;;;;29.49;40.47;98889.31;5072078;28;20055;-83
2022/08/15 10:52:19;;;;;;;1.45;1.23;;;;;;;29.27;39.87;98890.75;5090000;28;20042;-82
2022/08/15 10:55:40;;;;;;;6.72;2.20;;;;;;;29.58;39.71;98868.44;5090540;28;20062;-82
2022/08/15 10:58:32;;;;;;;2.15;1.90;;;;;;;29.71;38.78;98871.56;5066573;28;20445;-82
2022/08/15 11:01:07;;;;;;;1.30;1.15;;;;;;;29.61;37.31;98881.72;5090614;28;20023;-82
2022/08/15 11:03:48;;;;;;;2.05;1.73;;;;;;;29.68;38.36;98884.63;5107242;28;20518;-85
2022/08/15 11:06:16;;;;;;;2.15;1.23;;;;;;;29.64;38.96;98865.94;5110193;28;20055;-83
2022/08/15 11:08:51;;;;;;;3.47;2.33;;;;;;;29.91;40.88;98852.28;5110575;28;20042;-82
2022/08/15 11:11:17;;;;;;;;;;;;;;;30.15;39.34;98868.63;5111577;28;20020;-83
2022/08/15 11:13:51;;;;;;;1.50;1.20;;;;;;;30.07;36.29;98863.16;5110730;28;20034;-82
2022/08/15 11:16:27;;;;;;;2.38;1.88;;;;;;;30.17;36.97;98861.13;5110327;28;20043;-82
2022/08/15 11:18:55;;;;;;;4.47;2.28;;;;;;;30.11;35.82;98860.97;5110335;28;20036;-81
2022/08/15 11:21:48;;;;;;;2.50;2.30;;;;;;;30.35;38.40;98860.09;5110368;28;20058;-79
2022/08/15 11:24:33;;;;;;;2.22;1.40;;;;;;;30.06;38.21;98823.41;5110256;28;20028;-82
2022/08/15 11:27:17;;;;;;;5.47;3.05;;;;;;;30.69;36.56;98856.34;5110181;28;20036;-82
2022/08/15 11:29:44;;;;;;;2.60;1.75;;;;;;;30.35;38.46;98820.16;5108184;28;20047;-82
2022/08/15 11:32:13;;;;;;;2.05;1.85;;;;;;;30.19;35.47;98822.88;5110013;28;20783;-81
2022/08/15 11:34:46;;;;;;;17.63;2.17;;;;;;;30.12;35.01;98841.75;5110163;28;20497;-81
2022/08/15 11:37:16;;;;;;;2.00;1.80;;;;;;;30.22;37.80;98821.69;5110015;28;20419;-83
2022/08/15 11:39:52;;;;;;;2.20;1.52;;;;;;;30.36;35.03;98826.44;5110121;28;20036;-81
2022/08/15 11:42:20;;;;;;;1.60;1.45;;;;;;;30.44;35.58;98831.91;5109894;28;20048;-83
2022/08/15 11:44:56;;;;;;;3.33;2.15;;;;;;;30.54;35.30;98804.53;5109152;28;20038;-82
2022/08/15 11:47:23;;;;;;;1.67;1.27;;;;;;;30.44;35.71;98815.56;5109986;28;20046;-83
2022/08/15 11:50:00;;;;;;;2.17;1.92;;;;;;;30.33;35.65;98803.16;5109551;28;20034;-82
2022/08/15 11:52:32;;;;;;;2.08;0.93;;;;;;;30.65;37.04;98827.81;5109585;28;20119;-82
2022/08/15 11:55:08;;;;;;;3.08;1.95;;;;;;;30.89;36.60;98799.66;5109691;28;20075;-83
2022/08/15 11:57:42;;;;;;;2.53;2.03;;;;;;;30.76;35.40;98792.03;5109866;28;20034;-83
2022/08/15 12:00:36;;;;;;;1.30;1.20;;;;;;;30.80;33.30;98807.00;5107432;28;20027;-86
2022/08/15 12:03:16;;;;;;;;;;;;;;;30.80;35.13;98808.88;5085418;28;20064;-82
2022/08/15 12:05:41;;;;;;;6.38;1.85;;;;;;;30.63;33.98;98808.94;5102294;28;19923;-82
2022/08/15 12:08:08;;;;;;;1.52;1.33;;;;;;;30.76;35.09;98811.09;5096756;28;20481;-84
2022/08/15 12:10:39;;;;;;;1.90;1.23;;;;;;;30.64;34.50;98785.28;5109493;28;20451;-81
2022/08/15 12:13:06;;;;;;;1.42;1.02;;;;;;;30.85;34.57;98810.06;5099483;28;20035;-81